DRZA/AJY METAR and TAF weather

Enter ICAO airport designator
Station Type Date Time Source
DRZA METAR 2020/09/24 11:00 UTC NOAA

DRZA 241100Z 12014KT CAVOK 38/08 Q1015


Station Type Date Time Source
DRZA Decoded METAR 2020/09/24 11:00 UTC NOAA

Agadez, Niger (DRZA) 16-58N 007-59E 502M
Sep 24, 2020 - 07:00 AM EDT / 2020.09.24 1100 UTC
Wind: from the ESE (120 degrees) at 16 MPH (14 KT):0
Visibility: greater than 7 mile(s):0
Temperature: 100 F (38 C)
Heat index: 96.1 F (35.6 C):1
Dew Point: 46 F (8 C)
Relative Humidity: 16%
Pressure (altimeter): 29.97 in. Hg (1015 hPa)
ob: DRZA 241100Z 12014KT CAVOK 38/08 Q1015
cycle: 11

Station Type Date Time Source
DRZA TAF 2020/09/24 06:22 UTC NOAA

TAF DRZA 240500Z 2406/2506 14010KT CAVOK

Example: see airport list